METAR AND TAF INFORMATION
METAR FOR CZMT
ADDS - METARS form results

(1225 UTC 17 February 2019)
Data provider http://aviationweather.gov/metar/data/
 
Forecast for: AMD
Text: TAF AMD CZMT 170105Z 1701/1702 36005KT P6SM -SHSN BKN008
Forecast period: 0100 to 0200 UTC 17 February 2019
Forecast type: FROM: standard forecast or significant change
Winds: from the N (360 degrees) at 6 MPH (5 knots; 2.6 m/s)
Visibility: 6 or more miles 10+ km)
Ceiling: 800 feet AGL
Clouds: broken clouds at 800 feet AGL
Weather: -SHSN  (light snow showers)
Text: TEMPO 1701/1702 P6SM NSW SCT008 RMK NXT FCST WILL BE ISSUED AT 171615Z
Forecast period: 0100 to 0200 UTC 17 February 2019
Forecast type: TEMPORARY: The following changes expected for less than half the time period
Visibility: 6 or more miles 10+ km)
Ceiling: at least 12,000 feet AGL
Clouds: scattered clouds at 800 feet AGL
Weather: NSW  (no significant weather)

 AIRPORT MAP

 RUNWAY INFORMATION
Runway 13 Runway length 5000 ft Runway width 100 ft
Runway elevation 7 ft Runway displaced threshold 0 ft Runway heading 148
Runway 31 Runway length 5000 ft Runway width 100 ft
Runway elevation 25 ft Runway displaced threshold 250 ft Runway heading 328

 AIRPORT FREQUENCIES
Type UNIC Name ATF/UNICOM Frequency 122.7 MHZ

 AIRPORT NEAR NAVIGATION AIDS
Type NDB Name Masset Frequency 278 KHZ



Powered by Virtual Airlines Manager [v2.6.2]